sensor_id;sensor_type;location;lat;lon;timestamp;temperature;humidity
38090;DHT22;23904;52.322;10.232;2024-02-14T00:01:52;6.60;99.90
38090;DHT22;23904;52.322;10.232;2024-02-14T00:04:18;6.60;99.90
38090;DHT22;23904;52.322;10.232;2024-02-14T00:06:44;6.70;99.90
38090;DHT22;23904;52.322;10.232;2024-02-14T00:09:10;6.70;99.90
38090;DHT22;23904;52.322;10.232;2024-02-14T00:11:36;6.70;99.90
38090;DHT22;23904;52.322;10.232;2024-02-14T00:14:02;6.80;99.90
38090;DHT22;23904;52.322;10.232;2024-02-14T00:16:29;6.70;99.90
38090;DHT22;23904;52.322;10.232;2024-02-14T00:18:56;6.80;99.90
38090;DHT22;23904;52.322;10.232;2024-02-14T00:21:22;6.80;99.90
38090;DHT22;23904;52.322;10.232;2024-02-14T00:23:49;6.70;99.90
38090;DHT22;23904;52.322;10.232;2024-02-14T00:26:16;6.70;99.90
38090;DHT22;23904;52.322;10.232;2024-02-14T00:28:42;6.70;99.90
38090;DHT22;23904;52.322;10.232;2024-02-14T00:31:07;6.60;99.90
38090;DHT22;23904;52.322;10.232;2024-02-14T00:33:33;6.60;99.90
38090;DHT22;23904;52.322;10.232;2024-02-14T00:35:58;6.70;99.90
38090;DHT22;23904;52.322;10.232;2024-02-14T00:38:24;6.60;99.90
38090;DHT22;23904;52.322;10.232;2024-02-14T00:40:49;6.60;99.90
38090;DHT22;23904;52.322;10.232;2024-02-14T00:43:15;6.50;99.90
38090;DHT22;23904;52.322;10.232;2024-02-14T00:45:40;6.50;99.90
38090;DHT22;23904;52.322;10.232;2024-02-14T00:48:06;6.40;99.90
38090;DHT22;23904;52.322;10.232;2024-02-14T00:50:32;6.40;99.90
38090;DHT22;23904;52.322;10.232;2024-02-14T00:52:59;6.40;99.90
38090;DHT22;23904;52.322;10.232;2024-02-14T00:55:25;6.40;99.90
38090;DHT22;23904;52.322;10.232;2024-02-14T00:57:50;6.30;99.90
38090;DHT22;23904;52.322;10.232;2024-02-14T01:00:16;6.40;99.90
38090;DHT22;23904;52.322;10.232;2024-02-14T01:02:43;6.40;99.90
38090;DHT22;23904;52.322;10.232;2024-02-14T01:05:09;6.40;99.90
38090;DHT22;23904;52.322;10.232;2024-02-14T01:07:35;6.40;99.90
38090;DHT22;23904;52.322;10.232;2024-02-14T01:10:01;6.40;99.90
38090;DHT22;23904;52.322;10.232;2024-02-14T01:12:26;6.40;99.90
38090;DHT22;23904;52.322;10.232;2024-02-14T01:14:53;6.40;99.90
38090;DHT22;23904;52.322;10.232;2024-02-14T01:17:18;6.40;99.90
38090;DHT22;23904;52.322;10.232;2024-02-14T01:19:44;6.50;99.90
38090;DHT22;23904;52.322;10.232;2024-02-14T01:22:09;6.40;99.90
38090;DHT22;23904;52.322;10.232;2024-02-14T01:24:35;6.40;99.90
38090;DHT22;23904;52.322;10.232;2024-02-14T01:27:01;6.40;99.90
38090;DHT22;23904;52.322;10.232;2024-02-14T01:29:28;6.50;99.90
38090;DHT22;23904;52.322;10.232;2024-02-14T01:31:53;6.40;99.90
38090;DHT22;23904;52.322;10.232;2024-02-14T01:34:20;6.40;99.90
38090;DHT22;23904;52.322;10.232;2024-02-14T01:36:46;6.40;99.90
38090;DHT22;23904;52.322;10.232;2024-02-14T01:39:13;6.40;99.90
38090;DHT22;23904;52.322;10.232;2024-02-14T01:41:43;6.40;99.90
38090;DHT22;23904;52.322;10.232;2024-02-14T01:44:11;6.40;99.90
38090;DHT22;23904;52.322;10.232;2024-02-14T01:46:36;6.40;99.90
38090;DHT22;23904;52.322;10.232;2024-02-14T01:49:02;6.40;99.90
38090;DHT22;23904;52.322;10.232;2024-02-14T01:51:28;6.50;99.90
38090;DHT22;23904;52.322;10.232;2024-02-14T01:53:55;6.50;99.90
38090;DHT22;23904;52.322;10.232;2024-02-14T01:56:21;6.40;99.90
38090;DHT22;23904;52.322;10.232;2024-02-14T01:58:47;6.50;99.90
38090;DHT22;23904;52.322;10.232;2024-02-14T02:01:13;6.50;99.90
38090;DHT22;23904;52.322;10.232;2024-02-14T02:03:39;6.50;99.90
38090;DHT22;23904;52.322;10.232;2024-02-14T02:06:06;6.50;99.90
38090;DHT22;23904;52.322;10.232;2024-02-14T02:08:32;6.60;99.90
38090;DHT22;23904;52.322;10.232;2024-02-14T02:10:58;6.60;99.90
38090;DHT22;23904;52.322;10.232;2024-02-14T02:13:24;6.70;99.90
38090;DHT22;23904;52.322;10.232;2024-02-14T02:15:51;6.70;99.90
38090;DHT22;23904;52.322;10.232;2024-02-14T02:18:18;6.70;99.90
38090;DHT22;23904;52.322;10.232;2024-02-14T02:20:45;6.70;99.90
38090;DHT22;23904;52.322;10.232;2024-02-14T02:23:11;6.80;99.90
38090;DHT22;23904;52.322;10.232;2024-02-14T02:25:40;6.80;99.90
38090;DHT22;23904;52.322;10.232;2024-02-14T02:28:06;6.80;99.90
38090;DHT22;23904;52.322;10.232;2024-02-14T02:30:34;6.80;99.90
38090;DHT22;23904;52.322;10.232;2024-02-14T02:33:01;6.80;99.90
38090;DHT22;23904;52.322;10.232;2024-02-14T02:35:28;6.90;99.90
38090;DHT22;23904;52.322;10.232;2024-02-14T02:37:53;6.90;99.90
38090;DHT22;23904;52.322;10.232;2024-02-14T02:40:19;6.90;99.90
38090;DHT22;23904;52.322;10.232;2024-02-14T02:42:47;7.00;99.90
38090;DHT22;23904;52.322;10.232;2024-02-14T02:45:12;6.90;99.90
38090;DHT22;23904;52.322;10.232;2024-02-14T02:47:38;6.90;99.90
38090;DHT22;23904;52.322;10.232;2024-02-14T02:50:05;6.90;99.90
38090;DHT22;23904;52.322;10.232;2024-02-14T02:52:31;6.90;99.90
38090;DHT22;23904;52.322;10.232;2024-02-14T02:54:57;6.90;99.90
38090;DHT22;23904;52.322;10.232;2024-02-14T02:57:23;6.90;99.90
38090;DHT22;23904;52.322;10.232;2024-02-14T02:59:49;6.80;99.90
38090;DHT22;23904;52.322;10.232;2024-02-14T03:02:15;6.80;99.90
38090;DHT22;23904;52.322;10.232;2024-02-14T03:04:41;6.80;99.90
38090;DHT22;23904;52.322;10.232;2024-02-14T03:22:09;6.70;99.90
38090;DHT22;23904;52.322;10.232;2024-02-14T03:24:35;6.60;99.90
38090;DHT22;23904;52.322;10.232;2024-02-14T03:27:02;6.60;99.90
38090;DHT22;23904;52.322;10.232;2024-02-14T03:29:29;6.60;99.90
38090;DHT22;23904;52.322;10.232;2024-02-14T03:31:55;6.60;99.90
38090;DHT22;23904;52.322;10.232;2024-02-14T03:34:23;6.50;99.90
38090;DHT22;23904;52.322;10.232;2024-02-14T03:36:50;6.50;99.90
38090;DHT22;23904;52.322;10.232;2024-02-14T03:39:16;6.50;99.90
38090;DHT22;23904;52.322;10.232;2024-02-14T03:41:42;6.50;99.90
38090;DHT22;23904;52.322;10.232;2024-02-14T03:44:08;6.50;99.90
38090;DHT22;23904;52.322;10.232;2024-02-14T03:46:34;6.50;99.90
38090;DHT22;23904;52.322;10.232;2024-02-14T03:49:00;6.50;99.90
38090;DHT22;23904;52.322;10.232;2024-02-14T03:51:26;6.50;99.90
38090;DHT22;23904;52.322;10.232;2024-02-14T03:53:52;6.50;99.90
38090;DHT22;23904;52.322;10.232;2024-02-14T03:56:18;6.50;99.90
38090;DHT22;23904;52.322;10.232;2024-02-14T03:58:43;6.50;99.90
38090;DHT22;23904;52.322;10.232;2024-02-14T04:01:09;6.50;99.90
38090;DHT22;23904;52.322;10.232;2024-02-14T04:03:34;6.50;99.90
38090;DHT22;23904;52.322;10.232;2024-02-14T04:06:00;6.50;99.90
38090;DHT22;23904;52.322;10.232;2024-02-14T04:08:26;6.60;99.90
38090;DHT22;23904;52.322;10.232;2024-02-14T04:10:51;6.60;99.90
38090;DHT22;23904;52.322;10.232;2024-02-14T04:13:19;6.60;99.90
38090;DHT22;23904;52.322;10.232;2024-02-14T04:15:45;6.70;99.90
38090;DHT22;23904;52.322;10.232;2024-02-14T04:18:11;6.70;99.90
38090;DHT22;23904;52.322;10.232;2024-02-14T04:20:37;6.60;99.90
38090;DHT22;23904;52.322;10.232;2024-02-14T04:23:03;6.70;99.90
38090;DHT22;23904;52.322;10.232;2024-02-14T04:25:32;6.70;99.90
38090;DHT22;23904;52.322;10.232;2024-02-14T04:27:57;6.80;99.90
38090;DHT22;23904;52.322;10.232;2024-02-14T04:30:24;6.80;99.90
38090;DHT22;23904;52.322;10.232;2024-02-14T04:32:50;6.80;99.90
38090;DHT22;23904;52.322;10.232;2024-02-14T04:35:19;6.80;99.90
38090;DHT22;23904;52.322;10.232;2024-02-14T04:37:45;6.80;99.90
38090;DHT22;23904;52.322;10.232;2024-02-14T04:40:13;6.90;99.90
38090;DHT22;23904;52.322;10.232;2024-02-14T04:42:39;7.00;99.90
38090;DHT22;23904;52.322;10.232;2024-02-14T04:45:06;7.00;99.90
38090;DHT22;23904;52.322;10.232;2024-02-14T04:47:32;7.00;99.90
38090;DHT22;23904;52.322;10.232;2024-02-14T04:49:58;7.00;99.90
38090;DHT22;23904;52.322;10.232;2024-02-14T04:52:25;7.10;99.90
38090;DHT22;23904;52.322;10.232;2024-02-14T04:54:50;7.10;99.90
38090;DHT22;23904;52.322;10.232;2024-02-14T04:57:16;7.10;99.90
38090;DHT22;23904;52.322;10.232;2024-02-14T04:59:44;7.20;99.90
38090;DHT22;23904;52.322;10.232;2024-02-14T05:02:09;7.20;99.90
38090;DHT22;23904;52.322;10.232;2024-02-14T05:04:36;7.20;99.90
38090;DHT22;23904;52.322;10.232;2024-02-14T05:07:03;7.20;99.90
38090;DHT22;23904;52.322;10.232;2024-02-14T05:09:29;7.10;99.90
38090;DHT22;23904;52.322;10.232;2024-02-14T05:11:55;7.10;99.90
38090;DHT22;23904;52.322;10.232;2024-02-14T05:14:20;7.10;99.90
38090;DHT22;23904;52.322;10.232;2024-02-14T05:16:46;7.10;99.90
38090;DHT22;23904;52.322;10.232;2024-02-14T05:19:11;7.00;99.90
38090;DHT22;23904;52.322;10.232;2024-02-14T05:21:38;7.00;99.90
38090;DHT22;23904;52.322;10.232;2024-02-14T05:24:04;7.00;99.90
38090;DHT22;23904;52.322;10.232;2024-02-14T05:26:30;6.90;99.90
38090;DHT22;23904;52.322;10.232;2024-02-14T05:28:55;6.80;99.90
38090;DHT22;23904;52.322;10.232;2024-02-14T05:31:21;6.80;99.90
38090;DHT22;23904;52.322;10.232;2024-02-14T05:33:47;6.80;99.90
38090;DHT22;23904;52.322;10.232;2024-02-14T05:36:12;6.80;99.90
38090;DHT22;23904;52.322;10.232;2024-02-14T05:38:38;6.80;99.90
38090;DHT22;23904;52.322;10.232;2024-02-14T05:41:04;6.80;99.90
38090;DHT22;23904;52.322;10.232;2024-02-14T05:43:29;6.70;99.90
38090;DHT22;23904;52.322;10.232;2024-02-14T05:45:55;6.80;99.90
38090;DHT22;23904;52.322;10.232;2024-02-14T05:48:20;6.80;99.90
38090;DHT22;23904;52.322;10.232;2024-02-14T05:50:46;6.80;99.90
38090;DHT22;23904;52.322;10.232;2024-02-14T05:53:11;6.80;99.90
38090;DHT22;23904;52.322;10.232;2024-02-14T05:55:38;6.90;99.90
38090;DHT22;23904;52.322;10.232;2024-02-14T05:58:04;6.90;99.90
38090;DHT22;23904;52.322;10.232;2024-02-14T06:00:29;6.90;99.90
38090;DHT22;23904;52.322;10.232;2024-02-14T06:02:55;6.90;99.90
38090;DHT22;23904;52.322;10.232;2024-02-14T06:05:21;6.90;99.90
38090;DHT22;23904;52.322;10.232;2024-02-14T06:07:47;6.90;99.90
38090;DHT22;23904;52.322;10.232;2024-02-14T06:10:13;6.90;99.90
38090;DHT22;23904;52.322;10.232;2024-02-14T06:12:38;7.00;99.90
38090;DHT22;23904;52.322;10.232;2024-02-14T06:15:06;7.00;99.90
38090;DHT22;23904;52.322;10.232;2024-02-14T06:17:33;7.00;99.90
38090;DHT22;23904;52.322;10.232;2024-02-14T06:19:58;7.00;99.90
38090;DHT22;23904;52.322;10.232;2024-02-14T06:22:24;7.00;99.90
38090;DHT22;23904;52.322;10.232;2024-02-14T06:24:49;7.10;99.90
38090;DHT22;23904;52.322;10.232;2024-02-14T06:27:15;7.10;99.90
38090;DHT22;23904;52.322;10.232;2024-02-14T06:29:44;7.10;99.90
38090;DHT22;23904;52.322;10.232;2024-02-14T06:32:13;7.10;99.90
38090;DHT22;23904;52.322;10.232;2024-02-14T06:34:38;7.10;99.90
38090;DHT22;23904;52.322;10.232;2024-02-14T06:37:04;7.10;99.90
38090;DHT22;23904;52.322;10.232;2024-02-14T06:39:30;7.10;99.90
38090;DHT22;23904;52.322;10.232;2024-02-14T06:41:56;7.10;99.90
38090;DHT22;23904;52.322;10.232;2024-02-14T06:44:23;7.10;99.90
38090;DHT22;23904;52.322;10.232;2024-02-14T06:46:48;7.00;99.90
38090;DHT22;23904;52.322;10.232;2024-02-14T06:49:16;7.10;99.90
38090;DHT22;23904;52.322;10.232;2024-02-14T06:51:42;7.00;99.90
38090;DHT22;23904;52.322;10.232;2024-02-14T06:54:07;7.10;99.90
38090;DHT22;23904;52.322;10.232;2024-02-14T06:56:33;7.00;99.90
38090;DHT22;23904;52.322;10.232;2024-02-14T06:58:59;7.10;99.90
38090;DHT22;23904;52.322;10.232;2024-02-14T07:01:28;7.00;99.90
38090;DHT22;23904;52.322;10.232;2024-02-14T07:03:54;7.00;99.90
38090;DHT22;23904;52.322;10.232;2024-02-14T07:06:20;7.00;99.90
38090;DHT22;23904;52.322;10.232;2024-02-14T07:08:45;7.00;99.90
38090;DHT22;23904;52.322;10.232;2024-02-14T07:11:12;7.00;99.90
38090;DHT22;23904;52.322;10.232;2024-02-14T07:13:38;7.00;99.90
38090;DHT22;23904;52.322;10.232;2024-02-14T07:16:04;7.00;99.90
38090;DHT22;23904;52.322;10.232;2024-02-14T07:18:30;7.10;99.90
38090;DHT22;23904;52.322;10.232;2024-02-14T07:20:55;7.00;99.90
38090;DHT22;23904;52.322;10.232;2024-02-14T07:23:21;7.00;99.90
38090;DHT22;23904;52.322;10.232;2024-02-14T07:25:46;7.10;99.90
38090;DHT22;23904;52.322;10.232;2024-02-14T07:28:12;7.10;99.90
38090;DHT22;23904;52.322;10.232;2024-02-14T07:30:38;7.10;99.90
38090;DHT22;23904;52.322;10.232;2024-02-14T07:33:03;7.20;99.90
38090;DHT22;23904;52.322;10.232;2024-02-14T07:35:29;7.20;99.90
38090;DHT22;23904;52.322;10.232;2024-02-14T07:37:55;7.20;99.90
38090;DHT22;23904;52.322;10.232;2024-02-14T07:40:21;7.20;99.90
38090;DHT22;23904;52.322;10.232;2024-02-14T07:42:48;7.30;99.90
38090;DHT22;23904;52.322;10.232;2024-02-14T07:45:14;7.20;99.90
38090;DHT22;23904;52.322;10.232;2024-02-14T07:47:40;7.20;99.90
38090;DHT22;23904;52.322;10.232;2024-02-14T07:50:06;7.20;99.90
38090;DHT22;23904;52.322;10.232;2024-02-14T07:52:32;7.30;99.90
38090;DHT22;23904;52.322;10.232;2024-02-14T07:54:58;7.30;99.90
38090;DHT22;23904;52.322;10.232;2024-02-14T07:57:24;7.30;99.90
38090;DHT22;23904;52.322;10.232;2024-02-14T07:59:51;7.40;99.90
38090;DHT22;23904;52.322;10.232;2024-02-14T08:02:17;7.30;99.90
38090;DHT22;23904;52.322;10.232;2024-02-14T08:04:44;7.30;99.90
38090;DHT22;23904;52.322;10.232;2024-02-14T08:07:09;7.30;99.90
38090;DHT22;23904;52.322;10.232;2024-02-14T08:09:35;7.30;99.90
38090;DHT22;23904;52.322;10.232;2024-02-14T08:12:01;7.30;99.90
38090;DHT22;23904;52.322;10.232;2024-02-14T08:14:27;7.30;99.90
38090;DHT22;23904;52.322;10.232;2024-02-14T08:16:52;7.30;99.90
38090;DHT22;23904;52.322;10.232;2024-02-14T08:19:18;7.30;99.90
38090;DHT22;23904;52.322;10.232;2024-02-14T08:21:44;7.30;99.90
38090;DHT22;23904;52.322;10.232;2024-02-14T08:24:10;7.40;99.90
38090;DHT22;23904;52.322;10.232;2024-02-14T08:26:36;7.30;99.90
38090;DHT22;23904;52.322;10.232;2024-02-14T08:29:01;7.40;99.90
38090;DHT22;23904;52.322;10.232;2024-02-14T08:31:27;7.40;99.90
38090;DHT22;23904;52.322;10.232;2024-02-14T08:33:53;7.40;99.90
38090;DHT22;23904;52.322;10.232;2024-02-14T08:36:21;7.40;99.90
38090;DHT22;23904;52.322;10.232;2024-02-14T08:38:47;7.40;99.90
38090;DHT22;23904;52.322;10.232;2024-02-14T08:41:12;7.50;99.90
38090;DHT22;23904;52.322;10.232;2024-02-14T08:43:39;7.50;99.90
38090;DHT22;23904;52.322;10.232;2024-02-14T08:46:09;7.50;99.90
38090;DHT22;23904;52.322;10.232;2024-02-14T08:48:35;7.50;99.90
38090;DHT22;23904;52.322;10.232;2024-02-14T08:51:01;7.60;99.90
38090;DHT22;23904;52.322;10.232;2024-02-14T08:53:26;7.60;99.90
38090;DHT22;23904;52.322;10.232;2024-02-14T08:55:52;7.60;99.90
38090;DHT22;23904;52.322;10.232;2024-02-14T08:58:18;7.60;99.90
38090;DHT22;23904;52.322;10.232;2024-02-14T09:00:43;7.70;99.90
38090;DHT22;23904;52.322;10.232;2024-02-14T09:03:09;7.70;99.90
38090;DHT22;23904;52.322;10.232;2024-02-14T09:05:34;7.80;99.90
38090;DHT22;23904;52.322;10.232;2024-02-14T09:08:00;7.80;99.90
38090;DHT22;23904;52.322;10.232;2024-02-14T09:10:25;7.80;99.90
38090;DHT22;23904;52.322;10.232;2024-02-14T09:12:51;7.90;99.90
38090;DHT22;23904;52.322;10.232;2024-02-14T09:15:18;7.90;99.90
38090;DHT22;23904;52.322;10.232;2024-02-14T09:17:44;7.90;99.90
38090;DHT22;23904;52.322;10.232;2024-02-14T09:20:10;8.00;99.90
38090;DHT22;23904;52.322;10.232;2024-02-14T09:22:39;8.00;99.90
38090;DHT22;23904;52.322;10.232;2024-02-14T09:25:07;8.00;99.90
38090;DHT22;23904;52.322;10.232;2024-02-14T09:27:35;8.00;99.90
38090;DHT22;23904;52.322;10.232;2024-02-14T09:30:03;8.00;99.90
38090;DHT22;23904;52.322;10.232;2024-02-14T09:32:33;8.10;99.90
38090;DHT22;23904;52.322;10.232;2024-02-14T09:34:59;8.10;99.90
38090;DHT22;23904;52.322;10.232;2024-02-14T09:37:25;8.10;99.90
38090;DHT22;23904;52.322;10.232;2024-02-14T09:39:52;8.20;99.90
38090;DHT22;23904;52.322;10.232;2024-02-14T09:42:24;8.20;99.90
38090;DHT22;23904;52.322;10.232;2024-02-14T09:44:58;8.20;99.90
38090;DHT22;23904;52.322;10.232;2024-02-14T09:47:25;8.20;99.90
38090;DHT22;23904;52.322;10.232;2024-02-14T09:49:55;8.30;99.90
38090;DHT22;23904;52.322;10.232;2024-02-14T09:52:21;8.40;99.90
38090;DHT22;23904;52.322;10.232;2024-02-14T09:54:48;8.30;99.90
38090;DHT22;23904;52.322;10.232;2024-02-14T09:57:15;8.40;99.90
38090;DHT22;23904;52.322;10.232;2024-02-14T09:59:43;8.40;99.90
38090;DHT22;23904;52.322;10.232;2024-02-14T10:02:09;8.40;99.90
38090;DHT22;23904;52.322;10.232;2024-02-14T10:04:35;8.40;99.90
38090;DHT22;23904;52.322;10.232;2024-02-14T10:07:03;8.50;99.90
38090;DHT22;23904;52.322;10.232;2024-02-14T10:09:30;8.50;99.90
38090;DHT22;23904;52.322;10.232;2024-02-14T10:11:56;8.50;99.90
38090;DHT22;23904;52.322;10.232;2024-02-14T10:14:23;8.60;99.90
38090;DHT22;23904;52.322;10.232;2024-02-14T10:16:49;8.60;99.90
38090;DHT22;23904;52.322;10.232;2024-02-14T10:19:20;8.60;99.90
38090;DHT22;23904;52.322;10.232;2024-02-14T10:21:58;8.70;99.90
38090;DHT22;23904;52.322;10.232;2024-02-14T10:24:27;8.70;99.90
38090;DHT22;23904;52.322;10.232;2024-02-14T10:26:53;8.80;99.90
38090;DHT22;23904;52.322;10.232;2024-02-14T10:29:22;8.80;99.90
38090;DHT22;23904;52.322;10.232;2024-02-14T10:31:48;8.90;99.90
38090;DHT22;23904;52.322;10.232;2024-02-14T10:34:14;8.90;99.90
38090;DHT22;23904;52.322;10.232;2024-02-14T10:36:39;8.90;99.90
38090;DHT22;23904;52.322;10.232;2024-02-14T10:39:10;9.00;99.90
38090;DHT22;23904;52.322;10.232;2024-02-14T10:41:36;9.10;99.90
38090;DHT22;23904;52.322;10.232;2024-02-14T10:44:03;9.10;99.90
38090;DHT22;23904;52.322;10.232;2024-02-14T10:46:32;9.10;99.90
38090;DHT22;23904;52.322;10.232;2024-02-14T10:49:03;9.10;99.90
38090;DHT22;23904;52.322;10.232;2024-02-14T10:51:34;9.10;99.90
38090;DHT22;23904;52.322;10.232;2024-02-14T10:54:06;9.10;99.90
38090;DHT22;23904;52.322;10.232;2024-02-14T10:56:39;9.10;99.90
38090;DHT22;23904;52.322;10.232;2024-02-14T10:59:08;9.20;99.90
38090;DHT22;23904;52.322;10.232;2024-02-14T11:01:36;9.30;99.90
38090;DHT22;23904;52.322;10.232;2024-02-14T11:04:03;9.30;99.90
38090;DHT22;23904;52.322;10.232;2024-02-14T11:06:30;9.40;99.90
38090;DHT22;23904;52.322;10.232;2024-02-14T11:09:03;9.50;99.90
38090;DHT22;23904;52.322;10.232;2024-02-14T11:11:33;9.60;99.90
38090;DHT22;23904;52.322;10.232;2024-02-14T11:13:59;9.70;99.90
38090;DHT22;23904;52.322;10.232;2024-02-14T11:16:26;9.60;99.90
38090;DHT22;23904;52.322;10.232;2024-02-14T11:19:05;9.70;99.90
38090;DHT22;23904;52.322;10.232;2024-02-14T11:21:35;9.70;99.90
38090;DHT22;23904;52.322;10.232;2024-02-14T11:24:05;9.70;99.90
38090;DHT22;23904;52.322;10.232;2024-02-14T11:26:49;9.70;99.90
38090;DHT22;23904;52.322;10.232;2024-02-14T11:29:20;9.70;99.90
38090;DHT22;23904;52.322;10.232;2024-02-14T11:31:46;9.70;99.90
38090;DHT22;23904;52.322;10.232;2024-02-14T11:34:13;9.70;99.90
38090;DHT22;23904;52.322;10.232;2024-02-14T11:36:45;9.70;99.90
38090;DHT22;23904;52.322;10.232;2024-02-14T11:39:11;9.70;99.90
38090;DHT22;23904;52.322;10.232;2024-02-14T11:41:40;9.80;99.90
38090;DHT22;23904;52.322;10.232;2024-02-14T11:44:08;9.80;99.90
38090;DHT22;23904;52.322;10.232;2024-02-14T11:46:35;9.80;99.90
38090;DHT22;23904;52.322;10.232;2024-02-14T11:49:03;9.90;99.90
38090;DHT22;23904;52.322;10.232;2024-02-14T11:51:30;9.90;99.90
38090;DHT22;23904;52.322;10.232;2024-02-14T11:53:57;10.00;99.90
38090;DHT22;23904;52.322;10.232;2024-02-14T11:56:36;10.10;99.90
38090;DHT22;23904;52.322;10.232;2024-02-14T11:59:04;10.10;99.90
38090;DHT22;23904;52.322;10.232;2024-02-14T12:01:34;10.20;99.90
38090;DHT22;23904;52.322;10.232;2024-02-14T12:04:02;10.30;99.90
38090;DHT22;23904;52.322;10.232;2024-02-14T12:06:30;10.30;99.90
38090;DHT22;23904;52.322;10.232;2024-02-14T12:09:03;10.40;99.90
38090;DHT22;23904;52.322;10.232;2024-02-14T12:11:36;10.30;99.90
38090;DHT22;23904;52.322;10.232;2024-02-14T12:14:06;10.40;99.90
38090;DHT22;23904;52.322;10.232;2024-02-14T12:16:34;10.40;99.90
38090;DHT22;23904;52.322;10.232;2024-02-14T12:21:34;10.30;99.90
38090;DHT22;23904;52.322;10.232;2024-02-14T12:24:08;10.30;99.90
38090;DHT22;23904;52.322;10.232;2024-02-14T12:26:38;10.20;99.90
38090;DHT22;23904;52.322;10.232;2024-02-14T12:29:04;10.30;99.90
38090;DHT22;23904;52.322;10.232;2024-02-14T12:31:31;10.30;99.90
38090;DHT22;23904;52.322;10.232;2024-02-14T12:33:57;10.30;99.90
38090;DHT22;23904;52.322;10.232;2024-02-14T12:36:26;10.40;99.90
38090;DHT22;23904;52.322;10.232;2024-02-14T12:38:53;10.40;99.90
38090;DHT22;23904;52.322;10.232;2024-02-14T12:41:21;10.30;99.90
38090;DHT22;23904;52.322;10.232;2024-02-14T12:43:49;10.30;99.90
38090;DHT22;23904;52.322;10.232;2024-02-14T12:46:15;10.40;99.90
38090;DHT22;23904;52.322;10.232;2024-02-14T12:48:41;10.40;99.90
38090;DHT22;23904;52.322;10.232;2024-02-14T12:51:07;10.40;99.90
38090;DHT22;23904;52.322;10.232;2024-02-14T12:53:33;10.40;99.90
38090;DHT22;23904;52.322;10.232;2024-02-14T12:55:59;10.40;99.90
38090;DHT22;23904;52.322;10.232;2024-02-14T12:58:25;10.30;99.90
38090;DHT22;23904;52.322;10.232;2024-02-14T13:00:50;10.30;99.90
38090;DHT22;23904;52.322;10.232;2024-02-14T13:03:16;10.30;99.90
38090;DHT22;23904;52.322;10.232;2024-02-14T13:05:41;10.30;99.90
38090;DHT22;23904;52.322;10.232;2024-02-14T13:08:08;10.30;99.90
38090;DHT22;23904;52.322;10.232;2024-02-14T13:10:35;10.30;99.90
38090;DHT22;23904;52.322;10.232;2024-02-14T13:13:01;10.30;99.90
38090;DHT22;23904;52.322;10.232;2024-02-14T13:15:27;10.30;99.90
38090;DHT22;23904;52.322;10.232;2024-02-14T13:17:52;10.40;99.90
38090;DHT22;23904;52.322;10.232;2024-02-14T13:20:18;10.40;99.90
38090;DHT22;23904;52.322;10.232;2024-02-14T13:22:43;10.50;99.90
38090;DHT22;23904;52.322;10.232;2024-02-14T13:25:09;10.40;99.90
38090;DHT22;23904;52.322;10.232;2024-02-14T13:27:35;10.40;99.90
38090;DHT22;23904;52.322;10.232;2024-02-14T13:30:04;10.40;99.90
38090;DHT22;23904;52.322;10.232;2024-02-14T13:32:31;10.40;99.90
38090;DHT22;23904;52.322;10.232;2024-02-14T13:34:56;10.40;99.90
38090;DHT22;23904;52.322;10.232;2024-02-14T13:37:22;10.40;99.90
38090;DHT22;23904;52.322;10.232;2024-02-14T13:39:48;10.40;99.90
38090;DHT22;23904;52.322;10.232;2024-02-14T13:42:14;10.40;99.90
38090;DHT22;23904;52.322;10.232;2024-02-14T13:44:40;10.30;99.90
38090;DHT22;23904;52.322;10.232;2024-02-14T13:47:05;10.30;99.90
38090;DHT22;23904;52.322;10.232;2024-02-14T13:49:31;10.30;99.90
38090;DHT22;23904;52.322;10.232;2024-02-14T13:51:57;10.30;99.90
38090;DHT22;23904;52.322;10.232;2024-02-14T13:54:23;10.30;99.90
38090;DHT22;23904;52.322;10.232;2024-02-14T13:56:50;10.20;99.90
38090;DHT22;23904;52.322;10.232;2024-02-14T13:59:16;10.30;99.90
38090;DHT22;23904;52.322;10.232;2024-02-14T14:01:42;10.30;99.90
38090;DHT22;23904;52.322;10.232;2024-02-14T14:04:08;10.30;99.90
38090;DHT22;23904;52.322;10.232;2024-02-14T14:06:33;10.30;99.90
38090;DHT22;23904;52.322;10.232;2024-02-14T14:09:00;10.30;99.90
38090;DHT22;23904;52.322;10.232;2024-02-14T14:11:27;10.30;99.90
38090;DHT22;23904;52.322;10.232;2024-02-14T14:13:53;10.30;99.90
38090;DHT22;23904;52.322;10.232;2024-02-14T14:16:18;10.30;99.90
38090;DHT22;23904;52.322;10.232;2024-02-14T14:18:48;10.30;99.90
38090;DHT22;23904;52.322;10.232;2024-02-14T14:21:14;10.40;99.90
38090;DHT22;23904;52.322;10.232;2024-02-14T14:23:40;10.40;99.90
38090;DHT22;23904;52.322;10.232;2024-02-14T14:26:06;10.40;99.90
38090;DHT22;23904;52.322;10.232;2024-02-14T14:28:32;10.50;99.90
38090;DHT22;23904;52.322;10.232;2024-02-14T14:30:57;10.40;99.90
38090;DHT22;23904;52.322;10.232;2024-02-14T14:33:25;10.50;99.90
38090;DHT22;23904;52.322;10.232;2024-02-14T14:35:50;10.40;99.90
38090;DHT22;23904;52.322;10.232;2024-02-14T14:38:18;10.40;99.90
38090;DHT22;23904;52.322;10.232;2024-02-14T14:40:43;10.40;99.90
38090;DHT22;23904;52.322;10.232;2024-02-14T14:43:11;10.40;99.90
38090;DHT22;23904;52.322;10.232;2024-02-14T14:45:37;10.40;99.90
38090;DHT22;23904;52.322;10.232;2024-02-14T14:48:04;10.30;99.90
38090;DHT22;23904;52.322;10.232;2024-02-14T14:50:30;10.30;99.90
38090;DHT22;23904;52.322;10.232;2024-02-14T14:52:59;10.30;99.90
38090;DHT22;23904;52.322;10.232;2024-02-14T14:55:27;10.40;99.90
38090;DHT22;23904;52.322;10.232;2024-02-14T14:58:14;10.30;99.90
38090;DHT22;23904;52.322;10.232;2024-02-14T15:00:40;10.30;99.90
38090;DHT22;23904;52.322;10.232;2024-02-14T15:03:05;10.40;99.90
38090;DHT22;23904;52.322;10.232;2024-02-14T15:05:31;10.40;99.90
38090;DHT22;23904;52.322;10.232;2024-02-14T15:07:57;10.30;99.90
38090;DHT22;23904;52.322;10.232;2024-02-14T15:10:22;10.40;99.90
38090;DHT22;23904;52.322;10.232;2024-02-14T15:12:48;10.40;99.90
38090;DHT22;23904;52.322;10.232;2024-02-14T15:15:14;10.40;99.90
38090;DHT22;23904;52.322;10.232;2024-02-14T15:17:39;10.40;99.90
38090;DHT22;23904;52.322;10.232;2024-02-14T15:20:06;10.40;99.90
38090;DHT22;23904;52.322;10.232;2024-02-14T15:22:32;10.50;99.90
38090;DHT22;23904;52.322;10.232;2024-02-14T15:24:57;10.50;99.90
38090;DHT22;23904;52.322;10.232;2024-02-14T15:27:23;10.40;99.90
38090;DHT22;23904;52.322;10.232;2024-02-14T15:29:51;10.40;99.90
38090;DHT22;23904;52.322;10.232;2024-02-14T15:32:36;10.30;99.90
38090;DHT22;23904;52.322;10.232;2024-02-14T15:35:20;10.30;99.90
38090;DHT22;23904;52.322;10.232;2024-02-14T15:37:46;10.30;99.90
38090;DHT22;23904;52.322;10.232;2024-02-14T15:40:14;10.20;99.90
38090;DHT22;23904;52.322;10.232;2024-02-14T15:42:42;10.20;99.90